sensor_id;sensor_type;location;lat;lon;timestamp;temperature;humidity
20845;DHT22;10583;49.084;8.646;2024-02-21T00:00:22;7.60;99.90
20845;DHT22;10583;49.084;8.646;2024-02-21T00:02:50;7.60;99.90
20845;DHT22;10583;49.084;8.646;2024-02-21T00:05:18;7.60;99.90
20845;DHT22;10583;49.084;8.646;2024-02-21T00:07:45;7.60;99.90
20845;DHT22;10583;49.084;8.646;2024-02-21T00:10:12;7.60;99.90
20845;DHT22;10583;49.084;8.646;2024-02-21T00:12:39;7.50;99.90
20845;DHT22;10583;49.084;8.646;2024-02-21T00:15:07;7.50;99.90
20845;DHT22;10583;49.084;8.646;2024-02-21T00:17:34;7.60;99.90
20845;DHT22;10583;49.084;8.646;2024-02-21T00:20:03;7.60;99.90
20845;DHT22;10583;49.084;8.646;2024-02-21T00:22:30;7.60;99.90
20845;DHT22;10583;49.084;8.646;2024-02-21T00:24:59;7.60;99.90
20845;DHT22;10583;49.084;8.646;2024-02-21T00:27:26;7.60;99.90
20845;DHT22;10583;49.084;8.646;2024-02-21T00:29:53;7.60;99.90
20845;DHT22;10583;49.084;8.646;2024-02-21T00:32:20;7.60;99.90
20845;DHT22;10583;49.084;8.646;2024-02-21T00:34:47;7.60;99.90
20845;DHT22;10583;49.084;8.646;2024-02-21T00:37:15;7.60;99.90
20845;DHT22;10583;49.084;8.646;2024-02-21T00:39:42;7.60;99.90
20845;DHT22;10583;49.084;8.646;2024-02-21T00:42:09;7.50;99.90
20845;DHT22;10583;49.084;8.646;2024-02-21T00:44:36;7.50;99.90
20845;DHT22;10583;49.084;8.646;2024-02-21T00:47:03;7.50;99.90
20845;DHT22;10583;49.084;8.646;2024-02-21T00:49:30;7.50;99.90
20845;DHT22;10583;49.084;8.646;2024-02-21T00:51:57;7.50;99.90
20845;DHT22;10583;49.084;8.646;2024-02-21T00:54:26;7.50;99.90
20845;DHT22;10583;49.084;8.646;2024-02-21T00:56:52;7.60;99.90
20845;DHT22;10583;49.084;8.646;2024-02-21T00:59:20;7.60;99.90
20845;DHT22;10583;49.084;8.646;2024-02-21T01:01:48;7.60;99.90
20845;DHT22;10583;49.084;8.646;2024-02-21T01:04:17;7.60;99.90
20845;DHT22;10583;49.084;8.646;2024-02-21T01:06:47;7.70;99.90
20845;DHT22;10583;49.084;8.646;2024-02-21T01:09:17;7.70;99.90
20845;DHT22;10583;49.084;8.646;2024-02-21T01:11:51;7.70;99.90
20845;DHT22;10583;49.084;8.646;2024-02-21T01:17:10;7.80;99.90
20845;DHT22;10583;49.084;8.646;2024-02-21T01:19:39;7.70;99.90
20845;DHT22;10583;49.084;8.646;2024-02-21T01:22:10;7.70;99.90
20845;DHT22;10583;49.084;8.646;2024-02-21T01:24:40;7.70;99.90
20845;DHT22;10583;49.084;8.646;2024-02-21T01:27:13;7.80;99.90
20845;DHT22;10583;49.084;8.646;2024-02-21T01:29:43;7.70;99.90
20845;DHT22;10583;49.084;8.646;2024-02-21T01:32:16;7.70;99.90
20845;DHT22;10583;49.084;8.646;2024-02-21T01:34:46;7.70;99.90
20845;DHT22;10583;49.084;8.646;2024-02-21T01:37:19;7.70;99.90
20845;DHT22;10583;49.084;8.646;2024-02-21T01:39:49;7.70;99.90
20845;DHT22;10583;49.084;8.646;2024-02-21T01:42:23;7.60;99.90
20845;DHT22;10583;49.084;8.646;2024-02-21T01:44:53;7.60;99.90
20845;DHT22;10583;49.084;8.646;2024-02-21T01:47:24;7.60;99.90
20845;DHT22;10583;49.084;8.646;2024-02-21T01:49:54;7.50;99.90
20845;DHT22;10583;49.084;8.646;2024-02-21T01:52:25;7.50;99.90
20845;DHT22;10583;49.084;8.646;2024-02-21T01:54:55;7.50;99.90
20845;DHT22;10583;49.084;8.646;2024-02-21T01:57:29;7.60;99.90
20845;DHT22;10583;49.084;8.646;2024-02-21T01:59:58;7.50;99.90
20845;DHT22;10583;49.084;8.646;2024-02-21T02:02:28;7.50;99.90
20845;DHT22;10583;49.084;8.646;2024-02-21T02:04:59;7.50;99.90
20845;DHT22;10583;49.084;8.646;2024-02-21T02:07:29;7.50;99.90
20845;DHT22;10583;49.084;8.646;2024-02-21T02:09:59;7.50;99.90
20845;DHT22;10583;49.084;8.646;2024-02-21T02:12:33;7.50;99.90
20845;DHT22;10583;49.084;8.646;2024-02-21T02:15:04;7.60;99.90
20845;DHT22;10583;49.084;8.646;2024-02-21T02:17:34;7.50;99.90
20845;DHT22;10583;49.084;8.646;2024-02-21T02:20:05;7.50;99.90
20845;DHT22;10583;49.084;8.646;2024-02-21T02:22:35;7.60;99.90
20845;DHT22;10583;49.084;8.646;2024-02-21T02:25:09;7.60;99.90
20845;DHT22;10583;49.084;8.646;2024-02-21T02:27:47;7.60;99.90
20845;DHT22;10583;49.084;8.646;2024-02-21T02:30:17;7.50;99.90
20845;DHT22;10583;49.084;8.646;2024-02-21T02:32:47;7.50;99.90
20845;DHT22;10583;49.084;8.646;2024-02-21T02:35:17;7.50;99.90
20845;DHT22;10583;49.084;8.646;2024-02-21T02:37:50;7.50;99.90
20845;DHT22;10583;49.084;8.646;2024-02-21T02:40:26;7.50;99.90
20845;DHT22;10583;49.084;8.646;2024-02-21T02:42:56;7.50;99.90
20845;DHT22;10583;49.084;8.646;2024-02-21T02:45:27;7.50;99.90
20845;DHT22;10583;49.084;8.646;2024-02-21T02:47:58;7.50;99.90
20845;DHT22;10583;49.084;8.646;2024-02-21T02:50:29;7.50;99.90
20845;DHT22;10583;49.084;8.646;2024-02-21T02:52:59;7.50;99.90
20845;DHT22;10583;49.084;8.646;2024-02-21T02:55:31;7.50;99.90
20845;DHT22;10583;49.084;8.646;2024-02-21T02:58:02;7.50;99.90
20845;DHT22;10583;49.084;8.646;2024-02-21T03:00:35;7.50;99.90
20845;DHT22;10583;49.084;8.646;2024-02-21T03:03:06;7.50;99.90
20845;DHT22;10583;49.084;8.646;2024-02-21T03:05:36;7.40;99.90
20845;DHT22;10583;49.084;8.646;2024-02-21T03:08:07;7.40;99.90
20845;DHT22;10583;49.084;8.646;2024-02-21T03:10:41;7.30;99.90
20845;DHT22;10583;49.084;8.646;2024-02-21T03:13:11;7.30;99.90
20845;DHT22;10583;49.084;8.646;2024-02-21T03:15:41;7.20;99.90
20845;DHT22;10583;49.084;8.646;2024-02-21T03:18:11;7.10;99.90
20845;DHT22;10583;49.084;8.646;2024-02-21T03:20:41;7.10;99.90
20845;DHT22;10583;49.084;8.646;2024-02-21T03:23:11;7.10;99.90
20845;DHT22;10583;49.084;8.646;2024-02-21T03:25:44;7.00;99.90
20845;DHT22;10583;49.084;8.646;2024-02-21T03:28:16;7.00;99.90
20845;DHT22;10583;49.084;8.646;2024-02-21T03:30:46;7.00;99.90
20845;DHT22;10583;49.084;8.646;2024-02-21T03:33:15;6.90;99.90
20845;DHT22;10583;49.084;8.646;2024-02-21T03:35:46;6.90;99.90
20845;DHT22;10583;49.084;8.646;2024-02-21T03:38:16;6.90;99.90
20845;DHT22;10583;49.084;8.646;2024-02-21T03:40:50;6.90;99.90
20845;DHT22;10583;49.084;8.646;2024-02-21T03:43:21;6.90;99.90
20845;DHT22;10583;49.084;8.646;2024-02-21T03:45:51;6.90;99.90
20845;DHT22;10583;49.084;8.646;2024-02-21T03:48:21;6.90;99.90
20845;DHT22;10583;49.084;8.646;2024-02-21T03:50:52;6.90;99.90
20845;DHT22;10583;49.084;8.646;2024-02-21T03:53:22;6.80;99.90
20845;DHT22;10583;49.084;8.646;2024-02-21T03:55:52;6.80;99.90
20845;DHT22;10583;49.084;8.646;2024-02-21T03:58:20;6.80;99.90
20845;DHT22;10583;49.084;8.646;2024-02-21T04:00:47;6.80;99.90
20845;DHT22;10583;49.084;8.646;2024-02-21T04:03:14;6.80;99.90
20845;DHT22;10583;49.084;8.646;2024-02-21T04:05:41;6.70;99.90
20845;DHT22;10583;49.084;8.646;2024-02-21T04:08:08;6.70;99.90
20845;DHT22;10583;49.084;8.646;2024-02-21T04:10:35;6.70;99.90
20845;DHT22;10583;49.084;8.646;2024-02-21T04:13:06;6.70;99.90
20845;DHT22;10583;49.084;8.646;2024-02-21T04:15:33;6.70;99.90
20845;DHT22;10583;49.084;8.646;2024-02-21T04:18:00;6.80;99.90
20845;DHT22;10583;49.084;8.646;2024-02-21T04:20:29;6.80;99.90
20845;DHT22;10583;49.084;8.646;2024-02-21T04:22:56;6.80;99.90
20845;DHT22;10583;49.084;8.646;2024-02-21T04:25:23;6.80;99.90
20845;DHT22;10583;49.084;8.646;2024-02-21T04:27:50;6.80;99.90
20845;DHT22;10583;49.084;8.646;2024-02-21T04:30:18;6.80;99.90
20845;DHT22;10583;49.084;8.646;2024-02-21T04:32:46;6.80;99.90
20845;DHT22;10583;49.084;8.646;2024-02-21T04:35:13;6.80;99.90
20845;DHT22;10583;49.084;8.646;2024-02-21T04:37:40;6.70;99.90
20845;DHT22;10583;49.084;8.646;2024-02-21T04:40:07;6.70;99.90
20845;DHT22;10583;49.084;8.646;2024-02-21T04:42:34;6.60;99.90
20845;DHT22;10583;49.084;8.646;2024-02-21T04:45:02;6.60;99.90
20845;DHT22;10583;49.084;8.646;2024-02-21T04:47:31;6.50;99.90
20845;DHT22;10583;49.084;8.646;2024-02-21T04:49:58;6.50;99.90
20845;DHT22;10583;49.084;8.646;2024-02-21T04:52:25;6.50;99.90
20845;DHT22;10583;49.084;8.646;2024-02-21T04:54:53;6.40;99.90
20845;DHT22;10583;49.084;8.646;2024-02-21T04:57:21;6.30;99.90
20845;DHT22;10583;49.084;8.646;2024-02-21T04:59:48;6.30;99.90
20845;DHT22;10583;49.084;8.646;2024-02-21T05:02:15;6.30;99.90
20845;DHT22;10583;49.084;8.646;2024-02-21T05:04:44;6.20;99.90
20845;DHT22;10583;49.084;8.646;2024-02-21T05:07:11;6.10;99.90
20845;DHT22;10583;49.084;8.646;2024-02-21T05:09:38;6.10;99.90
20845;DHT22;10583;49.084;8.646;2024-02-21T05:12:05;6.10;99.90
20845;DHT22;10583;49.084;8.646;2024-02-21T05:14:32;6.10;99.90
20845;DHT22;10583;49.084;8.646;2024-02-21T05:17:00;6.10;99.90
20845;DHT22;10583;49.084;8.646;2024-02-21T05:19:27;6.10;99.90
20845;DHT22;10583;49.084;8.646;2024-02-21T05:21:55;6.10;99.90
20845;DHT22;10583;49.084;8.646;2024-02-21T05:24:22;6.10;99.90
20845;DHT22;10583;49.084;8.646;2024-02-21T05:26:49;6.10;99.90
20845;DHT22;10583;49.084;8.646;2024-02-21T05:29:16;6.10;99.90
20845;DHT22;10583;49.084;8.646;2024-02-21T05:31:56;6.10;99.90
20845;DHT22;10583;49.084;8.646;2024-02-21T05:34:23;6.10;99.90
20845;DHT22;10583;49.084;8.646;2024-02-21T05:36:51;6.00;99.90
20845;DHT22;10583;49.084;8.646;2024-02-21T05:39:19;6.00;99.90
20845;DHT22;10583;49.084;8.646;2024-02-21T05:41:48;5.90;99.90
20845;DHT22;10583;49.084;8.646;2024-02-21T05:44:15;5.90;99.90
20845;DHT22;10583;49.084;8.646;2024-02-21T05:46:43;5.90;99.90
20845;DHT22;10583;49.084;8.646;2024-02-21T05:49:11;5.90;99.90
20845;DHT22;10583;49.084;8.646;2024-02-21T05:51:41;5.80;99.90
20845;DHT22;10583;49.084;8.646;2024-02-21T05:54:08;5.80;99.90
20845;DHT22;10583;49.084;8.646;2024-02-21T05:56:44;5.70;99.90
20845;DHT22;10583;49.084;8.646;2024-02-21T05:59:12;5.70;99.90
20845;DHT22;10583;49.084;8.646;2024-02-21T06:01:41;5.70;99.90
20845;DHT22;10583;49.084;8.646;2024-02-21T06:04:09;5.70;99.90
20845;DHT22;10583;49.084;8.646;2024-02-21T06:06:38;5.60;99.90
20845;DHT22;10583;49.084;8.646;2024-02-21T06:09:06;5.60;99.90
20845;DHT22;10583;49.084;8.646;2024-02-21T06:11:37;5.60;99.90
20845;DHT22;10583;49.084;8.646;2024-02-21T06:14:10;5.50;99.90
20845;DHT22;10583;49.084;8.646;2024-02-21T06:16:38;5.40;99.90
20845;DHT22;10583;49.084;8.646;2024-02-21T06:19:07;5.40;99.90
20845;DHT22;10583;49.084;8.646;2024-02-21T06:21:36;5.40;99.90
20845;DHT22;10583;49.084;8.646;2024-02-21T06:24:07;5.40;99.90
20845;DHT22;10583;49.084;8.646;2024-02-21T06:26:36;5.40;99.90
20845;DHT22;10583;49.084;8.646;2024-02-21T06:29:24;5.40;99.90
20845;DHT22;10583;49.084;8.646;2024-02-21T06:31:52;5.50;99.90
20845;DHT22;10583;49.084;8.646;2024-02-21T06:34:21;5.50;99.90
20845;DHT22;10583;49.084;8.646;2024-02-21T06:36:50;5.50;99.90
20845;DHT22;10583;49.084;8.646;2024-02-21T06:39:18;5.50;99.90
20845;DHT22;10583;49.084;8.646;2024-02-21T06:41:47;5.50;99.90
20845;DHT22;10583;49.084;8.646;2024-02-21T06:44:18;5.40;99.90
20845;DHT22;10583;49.084;8.646;2024-02-21T06:46:45;5.40;99.90
20845;DHT22;10583;49.084;8.646;2024-02-21T06:49:12;5.40;99.90
20845;DHT22;10583;49.084;8.646;2024-02-21T06:51:41;5.40;99.90
20845;DHT22;10583;49.084;8.646;2024-02-21T06:54:09;5.40;99.90
20845;DHT22;10583;49.084;8.646;2024-02-21T06:56:37;5.50;99.90
20845;DHT22;10583;49.084;8.646;2024-02-21T06:59:04;5.50;99.90
20845;DHT22;10583;49.084;8.646;2024-02-21T07:01:34;5.50;99.90
20845;DHT22;10583;49.084;8.646;2024-02-21T07:04:05;5.50;99.90
20845;DHT22;10583;49.084;8.646;2024-02-21T07:06:33;5.60;99.90
20845;DHT22;10583;49.084;8.646;2024-02-21T07:09:01;5.60;99.90
20845;DHT22;10583;49.084;8.646;2024-02-21T07:11:29;5.70;99.90
20845;DHT22;10583;49.084;8.646;2024-02-21T07:13:56;5.70;99.90
20845;DHT22;10583;49.084;8.646;2024-02-21T07:19:28;5.80;99.90
20845;DHT22;10583;49.084;8.646;2024-02-21T07:21:55;5.90;99.90
20845;DHT22;10583;49.084;8.646;2024-02-21T07:24:23;5.90;99.90
20845;DHT22;10583;49.084;8.646;2024-02-21T07:26:50;5.90;99.90
20845;DHT22;10583;49.084;8.646;2024-02-21T07:29:16;6.10;99.90
20845;DHT22;10583;49.084;8.646;2024-02-21T07:31:44;6.10;99.90
20845;DHT22;10583;49.084;8.646;2024-02-21T07:34:11;6.20;99.90
20845;DHT22;10583;49.084;8.646;2024-02-21T07:36:39;6.10;99.90
20845;DHT22;10583;49.084;8.646;2024-02-21T07:39:08;6.10;99.90
20845;DHT22;10583;49.084;8.646;2024-02-21T07:41:35;6.10;99.90
20845;DHT22;10583;49.084;8.646;2024-02-21T07:44:02;6.10;99.90
20845;DHT22;10583;49.084;8.646;2024-02-21T07:46:29;6.10;99.90
20845;DHT22;10583;49.084;8.646;2024-02-21T07:48:56;6.10;99.90
20845;DHT22;10583;49.084;8.646;2024-02-21T07:51:27;6.20;99.90
20845;DHT22;10583;49.084;8.646;2024-02-21T07:53:56;6.30;99.90
20845;DHT22;10583;49.084;8.646;2024-02-21T07:56:23;6.40;99.90
20845;DHT22;10583;49.084;8.646;2024-02-21T07:58:50;6.50;99.90
20845;DHT22;10583;49.084;8.646;2024-02-21T08:01:18;6.60;99.90
20845;DHT22;10583;49.084;8.646;2024-02-21T08:03:46;6.70;99.90
20845;DHT22;10583;49.084;8.646;2024-02-21T08:06:13;6.80;99.90
20845;DHT22;10583;49.084;8.646;2024-02-21T08:08:40;6.90;99.90
20845;DHT22;10583;49.084;8.646;2024-02-21T08:11:11;6.90;99.90
20845;DHT22;10583;49.084;8.646;2024-02-21T08:13:38;7.00;99.90
20845;DHT22;10583;49.084;8.646;2024-02-21T08:16:06;7.10;99.90
20845;DHT22;10583;49.084;8.646;2024-02-21T08:18:33;7.30;99.90
20845;DHT22;10583;49.084;8.646;2024-02-21T08:21:03;7.30;99.90
20845;DHT22;10583;49.084;8.646;2024-02-21T08:23:29;7.30;99.90
20845;DHT22;10583;49.084;8.646;2024-02-21T08:25:56;7.40;99.90
20845;DHT22;10583;49.084;8.646;2024-02-21T08:28:24;7.30;99.90
20845;DHT22;10583;49.084;8.646;2024-02-21T08:30:51;7.40;99.90
20845;DHT22;10583;49.084;8.646;2024-02-21T08:33:18;7.50;99.90
20845;DHT22;10583;49.084;8.646;2024-02-21T08:35:50;7.50;99.90
20845;DHT22;10583;49.084;8.646;2024-02-21T08:38:17;7.50;99.90
20845;DHT22;10583;49.084;8.646;2024-02-21T08:40:44;7.60;99.90
20845;DHT22;10583;49.084;8.646;2024-02-21T08:43:11;7.60;99.90
20845;DHT22;10583;49.084;8.646;2024-02-21T08:45:39;7.70;99.90
20845;DHT22;10583;49.084;8.646;2024-02-21T08:48:07;7.80;99.90
20845;DHT22;10583;49.084;8.646;2024-02-21T08:50:34;7.80;99.90
20845;DHT22;10583;49.084;8.646;2024-02-21T08:53:02;7.90;99.90
20845;DHT22;10583;49.084;8.646;2024-02-21T08:55:29;8.00;99.90
20845;DHT22;10583;49.084;8.646;2024-02-21T08:57:56;8.00;99.90
20845;DHT22;10583;49.084;8.646;2024-02-21T09:00:23;8.10;99.90
20845;DHT22;10583;49.084;8.646;2024-02-21T09:02:54;8.10;99.90
20845;DHT22;10583;49.084;8.646;2024-02-21T09:05:22;8.20;99.90
20845;DHT22;10583;49.084;8.646;2024-02-21T09:07:50;8.30;99.90
20845;DHT22;10583;49.084;8.646;2024-02-21T09:10:17;8.40;99.90
20845;DHT22;10583;49.084;8.646;2024-02-21T09:12:44;8.50;99.90
20845;DHT22;10583;49.084;8.646;2024-02-21T09:15:12;8.40;99.90
20845;DHT22;10583;49.084;8.646;2024-02-21T09:17:38;8.50;99.90
20845;DHT22;10583;49.084;8.646;2024-02-21T09:20:08;8.70;99.90
20845;DHT22;10583;49.084;8.646;2024-02-21T09:22:37;8.80;99.90
20845;DHT22;10583;49.084;8.646;2024-02-21T09:25:06;8.90;99.90
20845;DHT22;10583;49.084;8.646;2024-02-21T09:27:33;9.10;99.90
20845;DHT22;10583;49.084;8.646;2024-02-21T09:30:00;9.20;99.90
20845;DHT22;10583;49.084;8.646;2024-02-21T09:32:27;9.30;99.90
20845;DHT22;10583;49.084;8.646;2024-02-21T09:34:54;9.40;99.90
20845;DHT22;10583;49.084;8.646;2024-02-21T09:37:23;9.70;99.90
20845;DHT22;10583;49.084;8.646;2024-02-21T09:39:50;9.80;99.90
20845;DHT22;10583;49.084;8.646;2024-02-21T09:42:20;10.00;99.90
20845;DHT22;10583;49.084;8.646;2024-02-21T09:44:48;10.30;99.90
20845;DHT22;10583;49.084;8.646;2024-02-21T09:47:22;10.40;99.90
20845;DHT22;10583;49.084;8.646;2024-02-21T09:49:49;10.50;99.90
20845;DHT22;10583;49.084;8.646;2024-02-21T09:52:17;10.50;99.90
20845;DHT22;10583;49.084;8.646;2024-02-21T09:54:47;10.40;99.90
20845;DHT22;10583;49.084;8.646;2024-02-21T09:57:15;10.60;99.90
20845;DHT22;10583;49.084;8.646;2024-02-21T09:59:43;10.80;99.90
20845;DHT22;10583;49.084;8.646;2024-02-21T10:02:11;10.80;99.90
20845;DHT22;10583;49.084;8.646;2024-02-21T10:04:39;10.90;99.90
20845;DHT22;10583;49.084;8.646;2024-02-21T10:07:07;10.90;99.90
20845;DHT22;10583;49.084;8.646;2024-02-21T10:09:34;11.00;99.90
20845;DHT22;10583;49.084;8.646;2024-02-21T10:12:09;10.90;99.90
20845;DHT22;10583;49.084;8.646;2024-02-21T10:14:37;11.00;99.90
20845;DHT22;10583;49.084;8.646;2024-02-21T10:17:04;11.20;99.90
20845;DHT22;10583;49.084;8.646;2024-02-21T10:19:34;11.50;99.90
20845;DHT22;10583;49.084;8.646;2024-02-21T10:22:03;11.40;99.90
20845;DHT22;10583;49.084;8.646;2024-02-21T10:24:30;11.40;99.90
20845;DHT22;10583;49.084;8.646;2024-02-21T10:27:02;11.40;99.90
20845;DHT22;10583;49.084;8.646;2024-02-21T10:29:31;11.50;99.90
20845;DHT22;10583;49.084;8.646;2024-02-21T10:32:05;11.40;99.90
20845;DHT22;10583;49.084;8.646;2024-02-21T10:34:33;11.50;99.90
20845;DHT22;10583;49.084;8.646;2024-02-21T10:37:01;11.50;99.90
20845;DHT22;10583;49.084;8.646;2024-02-21T10:39:29;11.50;99.90
20845;DHT22;10583;49.084;8.646;2024-02-21T10:41:59;11.50;99.90
20845;DHT22;10583;49.084;8.646;2024-02-21T10:44:28;11.80;99.90
20845;DHT22;10583;49.084;8.646;2024-02-21T10:46:58;12.00;99.90
20845;DHT22;10583;49.084;8.646;2024-02-21T10:49:26;12.10;99.90
20845;DHT22;10583;49.084;8.646;2024-02-21T10:51:57;12.20;99.90
20845;DHT22;10583;49.084;8.646;2024-02-21T10:54:39;12.00;99.90
20845;DHT22;10583;49.084;8.646;2024-02-21T10:57:07;12.10;99.90
20845;DHT22;10583;49.084;8.646;2024-02-21T10:59:37;12.10;99.90
20845;DHT22;10583;49.084;8.646;2024-02-21T11:02:05;12.20;99.90
20845;DHT22;10583;49.084;8.646;2024-02-21T11:04:33;12.20;99.90
20845;DHT22;10583;49.084;8.646;2024-02-21T11:07:03;12.20;99.90
20845;DHT22;10583;49.084;8.646;2024-02-21T11:09:32;12.20;99.90
20845;DHT22;10583;49.084;8.646;2024-02-21T11:12:02;12.00;99.90
20845;DHT22;10583;49.084;8.646;2024-02-21T11:14:30;11.90;99.90
20845;DHT22;10583;49.084;8.646;2024-02-21T11:17:01;11.80;99.90
20845;DHT22;10583;49.084;8.646;2024-02-21T11:19:31;11.90;99.90
20845;DHT22;10583;49.084;8.646;2024-02-21T11:21:59;11.80;99.90
20845;DHT22;10583;49.084;8.646;2024-02-21T11:24:27;11.70;99.90
20845;DHT22;10583;49.084;8.646;2024-02-21T11:26:55;11.70;99.90
20845;DHT22;10583;49.084;8.646;2024-02-21T11:29:25;11.90;99.90
20845;DHT22;10583;49.084;8.646;2024-02-21T11:31:54;11.80;99.90
20845;DHT22;10583;49.084;8.646;2024-02-21T11:34:21;11.90;99.90
20845;DHT22;10583;49.084;8.646;2024-02-21T11:36:51;12.00;99.90
20845;DHT22;10583;49.084;8.646;2024-02-21T11:39:20;12.00;99.90
20845;DHT22;10583;49.084;8.646;2024-02-21T11:42:00;12.00;99.90
20845;DHT22;10583;49.084;8.646;2024-02-21T11:44:27;12.10;99.90
20845;DHT22;10583;49.084;8.646;2024-02-21T11:46:54;12.30;99.90
20845;DHT22;10583;49.084;8.646;2024-02-21T11:49:21;12.30;99.90
20845;DHT22;10583;49.084;8.646;2024-02-21T11:51:49;12.40;99.90
20845;DHT22;10583;49.084;8.646;2024-02-21T11:54:24;12.50;99.90
20845;DHT22;10583;49.084;8.646;2024-02-21T11:56:51;12.30;99.90
20845;DHT22;10583;49.084;8.646;2024-02-21T11:59:18;12.60;99.90
20845;DHT22;10583;49.084;8.646;2024-02-21T12:01:46;12.70;99.90
20845;DHT22;10583;49.084;8.646;2024-02-21T12:04:13;12.70;99.90
20845;DHT22;10583;49.084;8.646;2024-02-21T12:06:40;12.60;99.90
20845;DHT22;10583;49.084;8.646;2024-02-21T12:09:09;12.40;99.90
20845;DHT22;10583;49.084;8.646;2024-02-21T12:11:36;12.40;99.90
20845;DHT22;10583;49.084;8.646;2024-02-21T12:14:04;12.50;99.90
20845;DHT22;10583;49.084;8.646;2024-02-21T12:16:32;12.60;99.90
20845;DHT22;10583;49.084;8.646;2024-02-21T12:19:00;12.60;99.90
20845;DHT22;10583;49.084;8.646;2024-02-21T12:21:30;12.60;99.90
20845;DHT22;10583;49.084;8.646;2024-02-21T12:23:58;12.50;99.90
20845;DHT22;10583;49.084;8.646;2024-02-21T12:26:27;12.50;99.90
20845;DHT22;10583;49.084;8.646;2024-02-21T12:28:54;12.50;99.90
20845;DHT22;10583;49.084;8.646;2024-02-21T12:31:21;12.60;99.90
20845;DHT22;10583;49.084;8.646;2024-02-21T12:33:48;12.60;99.90
20845;DHT22;10583;49.084;8.646;2024-02-21T12:36:17;12.40;99.90
20845;DHT22;10583;49.084;8.646;2024-02-21T12:38:44;12.40;99.90
20845;DHT22;10583;49.084;8.646;2024-02-21T12:41:12;12.40;99.90
20845;DHT22;10583;49.084;8.646;2024-02-21T12:43:40;12.40;99.90
20845;DHT22;10583;49.084;8.646;2024-02-21T12:46:08;12.50;99.90
20845;DHT22;10583;49.084;8.646;2024-02-21T12:48:35;12.60;99.90
20845;DHT22;10583;49.084;8.646;2024-02-21T12:51:02;12.60;99.90
20845;DHT22;10583;49.084;8.646;2024-02-21T12:53:30;12.70;99.90
20845;DHT22;10583;49.084;8.646;2024-02-21T12:55:57;12.70;99.90
20845;DHT22;10583;49.084;8.646;2024-02-21T12:58:24;12.60;99.90
20845;DHT22;10583;49.084;8.646;2024-02-21T13:00:53;12.50;99.90
20845;DHT22;10583;49.084;8.646;2024-02-21T13:03:20;12.60;99.90
20845;DHT22;10583;49.084;8.646;2024-02-21T13:05:47;12.60;99.90
20845;DHT22;10583;49.084;8.646;2024-02-21T13:08:14;12.70;99.90
20845;DHT22;10583;49.084;8.646;2024-02-21T13:10:42;12.60;99.90
20845;DHT22;10583;49.084;8.646;2024-02-21T13:13:09;12.50;99.90
20845;DHT22;10583;49.084;8.646;2024-02-21T13:15:37;12.50;99.90
20845;DHT22;10583;49.084;8.646;2024-02-21T13:18:09;12.50;99.90
20845;DHT22;10583;49.084;8.646;2024-02-21T13:20:37;12.50;99.90
20845;DHT22;10583;49.084;8.646;2024-02-21T13:23:04;12.30;99.90
20845;DHT22;10583;49.084;8.646;2024-02-21T13:25:31;12.30;99.90
20845;DHT22;10583;49.084;8.646;2024-02-21T13:27:58;12.40;99.90
20845;DHT22;10583;49.084;8.646;2024-02-21T13:30:25;12.40;99.90
20845;DHT22;10583;49.084;8.646;2024-02-21T13:32:52;12.30;99.90
20845;DHT22;10583;49.084;8.646;2024-02-21T13:35:22;12.20;99.90
20845;DHT22;10583;49.084;8.646;2024-02-21T13:37:49;12.30;99.90
20845;DHT22;10583;49.084;8.646;2024-02-21T13:40:17;12.30;99.90
20845;DHT22;10583;49.084;8.646;2024-02-21T13:42:43;12.20;99.90
20845;DHT22;10583;49.084;8.646;2024-02-21T13:45:11;12.10;99.90
20845;DHT22;10583;49.084;8.646;2024-02-21T13:47:37;12.20;99.90
20845;DHT22;10583;49.084;8.646;2024-02-21T13:50:06;12.30;99.90
20845;DHT22;10583;49.084;8.646;2024-02-21T13:52:36;12.20;99.90
20845;DHT22;10583;49.084;8.646;2024-02-21T13:55:03;12.10;99.90
20845;DHT22;10583;49.084;8.646;2024-02-21T13:57:34;12.10;99.90
20845;DHT22;10583;49.084;8.646;2024-02-21T14:00:01;12.20;99.90
20845;DHT22;10583;49.084;8.646;2024-02-21T14:02:28;12.10;99.90
20845;DHT22;10583;49.084;8.646;2024-02-21T14:04:55;12.10;99.90
20845;DHT22;10583;49.084;8.646;2024-02-21T14:07:22;12.00;99.90
20845;DHT22;10583;49.084;8.646;2024-02-21T14:09:50;12.00;99.90
20845;DHT22;10583;49.084;8.646;2024-02-21T14:12:17;12.00;99.90
20845;DHT22;10583;49.084;8.646;2024-02-21T14:14:46;11.90;99.90
20845;DHT22;10583;49.084;8.646;2024-02-21T14:17:12;12.00;99.90
20845;DHT22;10583;49.084;8.646;2024-02-21T14:19:39;12.10;99.90
20845;DHT22;10583;49.084;8.646;2024-02-21T14:22:07;12.10;99.90
20845;DHT22;10583;49.084;8.646;2024-02-21T14:24:33;12.10;99.90
20845;DHT22;10583;49.084;8.646;2024-02-21T14:27:01;12.00;99.90
20845;DHT22;10583;49.084;8.646;2024-02-21T14:29:29;12.10;99.90
20845;DHT22;10583;49.084;8.646;2024-02-21T14:31:55;12.20;99.90
20845;DHT22;10583;49.084;8.646;2024-02-21T14:34:22;12.10;99.90
20845;DHT22;10583;49.084;8.646;2024-02-21T14:36:49;12.10;99.90
20845;DHT22;10583;49.084;8.646;2024-02-21T14:39:15;12.00;99.90
20845;DHT22;10583;49.084;8.646;2024-02-21T14:41:42;11.90;99.90
20845;DHT22;10583;49.084;8.646;2024-02-21T14:44:10;12.00;99.90
20845;DHT22;10583;49.084;8.646;2024-02-21T14:46:39;12.00;99.90
20845;DHT22;10583;49.084;8.646;2024-02-21T14:49:06;12.00;99.90
20845;DHT22;10583;49.084;8.646;2024-02-21T14:51:33;11.90;99.90
20845;DHT22;10583;49.084;8.646;2024-02-21T14:54:00;11.80;99.90
20845;DHT22;10583;49.084;8.646;2024-02-21T14:56:26;11.80;99.90
20845;DHT22;10583;49.084;8.646;2024-02-21T14:58:53;11.70;99.90
20845;DHT22;10583;49.084;8.646;2024-02-21T15:01:21;11.70;99.90
20845;DHT22;10583;49.084;8.646;2024-02-21T15:03:48;11.80;99.90
20845;DHT22;10583;49.084;8.646;2024-02-21T15:06:15;11.80;99.90
20845;DHT22;10583;49.084;8.646;2024-02-21T15:08:41;11.90;99.90
20845;DHT22;10583;49.084;8.646;2024-02-21T15:11:08;12.00;99.90
20845;DHT22;10583;49.084;8.646;2024-02-21T15:13:35;12.00;99.90
20845;DHT22;10583;49.084;8.646;2024-02-21T15:16:03;12.00;99.90
20845;DHT22;10583;49.084;8.646;2024-02-21T15:18:31;11.90;99.90
20845;DHT22;10583;49.084;8.646;2024-02-21T15:20:58;11.90;99.90
20845;DHT22;10583;49.084;8.646;2024-02-21T15:23:26;11.90;99.90
20845;DHT22;10583;49.084;8.646;2024-02-21T15:25:53;11.90;99.90
20845;DHT22;10583;49.084;8.646;2024-02-21T15:28:20;11.90;99.90
20845;DHT22;10583;49.084;8.646;2024-02-21T15:30:47;11.90;99.90
20845;DHT22;10583;49.084;8.646;2024-02-21T15:33:13;11.80;99.90
20845;DHT22;10583;49.084;8.646;2024-02-21T15:35:41;11.80;99.90
20845;DHT22;10583;49.084;8.646;2024-02-21T15:38:08;11.80;99.90
20845;DHT22;10583;49.084;8.646;2024-02-21T15:40:35;11.70;99.90
20845;DHT22;10583;49.084;8.646;2024-02-21T15:43:04;11.70;99.90
20845;DHT22;10583;49.084;8.646;2024-02-21T15:45:33;11.70;99.90
20845;DHT22;10583;49.084;8.646;2024-02-21T15:48:00;11.70;99.90
20845;DHT22;10583;49.084;8.646;2024-02-21T15:50:29;11.60;99.90
20845;DHT22;10583;49.084;8.646;2024-02-21T15:52:57;11.60;99.90